sensor_id;sensor_type;location;lat;lon;timestamp;P1;durP1;ratioP1;P2;durP2;ratioP2
79149;SDS011;68563;45.644;13.782;2023-06-26T00:02:13;6.22;;;5.28;;
79149;SDS011;68563;45.644;13.782;2023-06-26T00:04:38;6.40;;;5.30;;
79149;SDS011;68563;45.644;13.782;2023-06-26T00:07:04;8.18;;;5.38;;
79149;SDS011;68563;45.644;13.782;2023-06-26T00:09:30;6.95;;;5.70;;
79149;SDS011;68563;45.644;13.782;2023-06-26T00:11:55;7.97;;;5.22;;
79149;SDS011;68563;45.644;13.782;2023-06-26T00:14:21;8.27;;;5.45;;
79149;SDS011;68563;45.644;13.782;2023-06-26T00:16:46;7.00;;;5.40;;
79149;SDS011;68563;45.644;13.782;2023-06-26T00:19:14;11.20;;;5.40;;
79149;SDS011;68563;45.644;13.782;2023-06-26T00:21:40;7.18;;;5.88;;
79149;SDS011;68563;45.644;13.782;2023-06-26T00:24:11;7.85;;;5.80;;
79149;SDS011;68563;45.644;13.782;2023-06-26T00:26:37;8.10;;;5.70;;
79149;SDS011;68563;45.644;13.782;2023-06-26T00:29:02;6.95;;;5.35;;
79149;SDS011;68563;45.644;13.782;2023-06-26T00:31:28;6.72;;;5.32;;
79149;SDS011;68563;45.644;13.782;2023-06-26T00:33:53;10.00;;;5.95;;
79149;SDS011;68563;45.644;13.782;2023-06-26T00:36:19;8.32;;;5.68;;
79149;SDS011;68563;45.644;13.782;2023-06-26T00:38:44;7.22;;;5.72;;
79149;SDS011;68563;45.644;13.782;2023-06-26T00:41:09;8.85;;;5.78;;
79149;SDS011;68563;45.644;13.782;2023-06-26T00:43:37;6.82;;;5.55;;
79149;SDS011;68563;45.644;13.782;2023-06-26T00:46:03;8.15;;;5.55;;
79149;SDS011;68563;45.644;13.782;2023-06-26T00:48:29;7.43;;;5.53;;
79149;SDS011;68563;45.644;13.782;2023-06-26T00:50:55;8.25;;;5.70;;
79149;SDS011;68563;45.644;13.782;2023-06-26T00:53:21;7.22;;;5.53;;
79149;SDS011;68563;45.644;13.782;2023-06-26T00:55:47;8.52;;;5.68;;
79149;SDS011;68563;45.644;13.782;2023-06-26T00:58:12;6.55;;;5.75;;
79149;SDS011;68563;45.644;13.782;2023-06-26T01:00:38;7.25;;;5.30;;
79149;SDS011;68563;45.644;13.782;2023-06-26T01:03:04;8.50;;;5.57;;
79149;SDS011;68563;45.644;13.782;2023-06-26T01:05:29;7.57;;;5.68;;
79149;SDS011;68563;45.644;13.782;2023-06-26T01:07:56;7.45;;;5.28;;
79149;SDS011;68563;45.644;13.782;2023-06-26T01:10:22;6.72;;;5.05;;
79149;SDS011;68563;45.644;13.782;2023-06-26T01:12:49;7.28;;;5.47;;
79149;SDS011;68563;45.644;13.782;2023-06-26T01:15:14;6.53;;;5.13;;
79149;SDS011;68563;45.644;13.782;2023-06-26T01:17:40;8.07;;;5.57;;
79149;SDS011;68563;45.644;13.782;2023-06-26T01:20:10;7.88;;;5.70;;
79149;SDS011;68563;45.644;13.782;2023-06-26T01:28:03;7.38;;;5.53;;
79149;SDS011;68563;45.644;13.782;2023-06-26T01:30:30;9.90;;;5.57;;
79149;SDS011;68563;45.644;13.782;2023-06-26T01:32:57;7.20;;;5.75;;
79149;SDS011;68563;45.644;13.782;2023-06-26T01:35:24;7.57;;;5.28;;
79149;SDS011;68563;45.644;13.782;2023-06-26T01:37:50;6.35;;;5.35;;
79149;SDS011;68563;45.644;13.782;2023-06-26T01:40:15;6.40;;;5.35;;
79149;SDS011;68563;45.644;13.782;2023-06-26T01:42:41;6.10;;;5.45;;
79149;SDS011;68563;45.644;13.782;2023-06-26T01:45:15;6.35;;;5.00;;
79149;SDS011;68563;45.644;13.782;2023-06-26T01:47:49;6.50;;;4.78;;
79149;SDS011;68563;45.644;13.782;2023-06-26T01:50:17;6.93;;;5.43;;
79149;SDS011;68563;45.644;13.782;2023-06-26T01:55:51;10.73;;;5.63;;
79149;SDS011;68563;45.644;13.782;2023-06-26T01:58:21;6.90;;;5.20;;
79149;SDS011;68563;45.644;13.782;2023-06-26T02:00:48;6.68;;;5.55;;
79149;SDS011;68563;45.644;13.782;2023-06-26T02:03:14;6.95;;;5.35;;
79149;SDS011;68563;45.644;13.782;2023-06-26T02:05:39;7.93;;;5.50;;
79149;SDS011;68563;45.644;13.782;2023-06-26T02:08:08;8.27;;;5.45;;
79149;SDS011;68563;45.644;13.782;2023-06-26T02:10:34;6.28;;;5.15;;
79149;SDS011;68563;45.644;13.782;2023-06-26T02:13:00;6.90;;;6.13;;
79149;SDS011;68563;45.644;13.782;2023-06-26T02:15:25;8.30;;;5.25;;
79149;SDS011;68563;45.644;13.782;2023-06-26T02:17:51;6.32;;;5.55;;
79149;SDS011;68563;45.644;13.782;2023-06-26T02:20:16;8.05;;;5.35;;
79149;SDS011;68563;45.644;13.782;2023-06-26T02:22:42;6.22;;;5.00;;
79149;SDS011;68563;45.644;13.782;2023-06-26T02:25:08;7.35;;;5.45;;
79149;SDS011;68563;45.644;13.782;2023-06-26T02:27:34;8.55;;;5.63;;
79149;SDS011;68563;45.644;13.782;2023-06-26T02:29:59;9.20;;;5.53;;
79149;SDS011;68563;45.644;13.782;2023-06-26T02:32:25;6.63;;;5.30;;
79149;SDS011;68563;45.644;13.782;2023-06-26T02:34:50;6.78;;;5.35;;
79149;SDS011;68563;45.644;13.782;2023-06-26T02:37:19;7.85;;;5.47;;
79149;SDS011;68563;45.644;13.782;2023-06-26T02:39:44;6.63;;;5.15;;
79149;SDS011;68563;45.644;13.782;2023-06-26T02:42:10;6.38;;;5.20;;
79149;SDS011;68563;45.644;13.782;2023-06-26T02:44:35;8.63;;;5.43;;
79149;SDS011;68563;45.644;13.782;2023-06-26T02:47:02;6.13;;;5.32;;
79149;SDS011;68563;45.644;13.782;2023-06-26T02:49:28;6.60;;;5.45;;
79149;SDS011;68563;45.644;13.782;2023-06-26T02:51:53;6.15;;;5.45;;
79149;SDS011;68563;45.644;13.782;2023-06-26T02:54:19;7.80;;;5.22;;
79149;SDS011;68563;45.644;13.782;2023-06-26T02:56:44;7.60;;;5.55;;
79149;SDS011;68563;45.644;13.782;2023-06-26T02:59:09;6.60;;;5.50;;
79149;SDS011;68563;45.644;13.782;2023-06-26T03:01:35;6.97;;;5.05;;
79149;SDS011;68563;45.644;13.782;2023-06-26T03:04:00;7.68;;;4.93;;
79149;SDS011;68563;45.644;13.782;2023-06-26T03:06:29;7.68;;;5.65;;
79149;SDS011;68563;45.644;13.782;2023-06-26T03:08:54;7.32;;;5.35;;
79149;SDS011;68563;45.644;13.782;2023-06-26T03:11:20;7.75;;;5.45;;
79149;SDS011;68563;45.644;13.782;2023-06-26T03:13:45;6.15;;;5.18;;
79149;SDS011;68563;45.644;13.782;2023-06-26T03:16:11;7.13;;;5.20;;
79149;SDS011;68563;45.644;13.782;2023-06-26T03:18:36;6.57;;;5.13;;
79149;SDS011;68563;45.644;13.782;2023-06-26T03:21:01;6.68;;;5.18;;
79149;SDS011;68563;45.644;13.782;2023-06-26T03:23:27;6.40;;;5.30;;
79149;SDS011;68563;45.644;13.782;2023-06-26T03:25:53;6.53;;;5.35;;
79149;SDS011;68563;45.644;13.782;2023-06-26T03:28:18;8.23;;;5.72;;
79149;SDS011;68563;45.644;13.782;2023-06-26T03:30:44;6.60;;;5.60;;
79149;SDS011;68563;45.644;13.782;2023-06-26T03:33:09;6.72;;;5.28;;
79149;SDS011;68563;45.644;13.782;2023-06-26T03:35:35;7.53;;;5.10;;
79149;SDS011;68563;45.644;13.782;2023-06-26T03:38:01;6.30;;;5.30;;
79149;SDS011;68563;45.644;13.782;2023-06-26T03:40:26;8.07;;;5.18;;
79149;SDS011;68563;45.644;13.782;2023-06-26T03:42:52;8.05;;;5.85;;
79149;SDS011;68563;45.644;13.782;2023-06-26T03:45:17;8.32;;;5.90;;
79149;SDS011;68563;45.644;13.782;2023-06-26T03:47:44;8.95;;;5.95;;
79149;SDS011;68563;45.644;13.782;2023-06-26T03:50:12;13.77;;;7.75;;
79149;SDS011;68563;45.644;13.782;2023-06-26T03:52:37;10.32;;;6.88;;
79149;SDS011;68563;45.644;13.782;2023-06-26T03:55:03;8.48;;;6.82;;
79149;SDS011;68563;45.644;13.782;2023-06-26T03:57:28;8.13;;;5.85;;
79149;SDS011;68563;45.644;13.782;2023-06-26T03:59:54;6.60;;;5.53;;
79149;SDS011;68563;45.644;13.782;2023-06-26T04:02:19;7.97;;;5.30;;
79149;SDS011;68563;45.644;13.782;2023-06-26T04:04:44;6.72;;;5.50;;
79149;SDS011;68563;45.644;13.782;2023-06-26T04:07:10;12.73;;;8.77;;
79149;SDS011;68563;45.644;13.782;2023-06-26T04:09:35;11.63;;;8.10;;
79149;SDS011;68563;45.644;13.782;2023-06-26T04:12:01;9.48;;;7.50;;
79149;SDS011;68563;45.644;13.782;2023-06-26T04:14:27;7.00;;;5.85;;
79149;SDS011;68563;45.644;13.782;2023-06-26T04:16:52;7.13;;;5.90;;
79149;SDS011;68563;45.644;13.782;2023-06-26T04:19:17;8.75;;;6.05;;
79149;SDS011;68563;45.644;13.782;2023-06-26T04:21:43;9.32;;;5.90;;
79149;SDS011;68563;45.644;13.782;2023-06-26T04:24:08;7.65;;;6.63;;
79149;SDS011;68563;45.644;13.782;2023-06-26T04:26:34;8.77;;;6.47;;
79149;SDS011;68563;45.644;13.782;2023-06-26T04:29:00;8.18;;;6.60;;
79149;SDS011;68563;45.644;13.782;2023-06-26T04:31:26;8.57;;;6.45;;
79149;SDS011;68563;45.644;13.782;2023-06-26T04:33:51;8.63;;;6.60;;
79149;SDS011;68563;45.644;13.782;2023-06-26T04:36:19;8.82;;;6.63;;
79149;SDS011;68563;45.644;13.782;2023-06-26T04:38:45;8.98;;;6.63;;
79149;SDS011;68563;45.644;13.782;2023-06-26T04:41:11;8.52;;;6.50;;
79149;SDS011;68563;45.644;13.782;2023-06-26T04:43:36;8.38;;;6.72;;
79149;SDS011;68563;45.644;13.782;2023-06-26T04:46:02;7.95;;;6.35;;
79149;SDS011;68563;45.644;13.782;2023-06-26T04:48:28;8.45;;;6.18;;
79149;SDS011;68563;45.644;13.782;2023-06-26T04:50:54;10.88;;;6.40;;
79149;SDS011;68563;45.644;13.782;2023-06-26T04:53:21;7.38;;;5.60;;
79149;SDS011;68563;45.644;13.782;2023-06-26T04:55:47;14.93;;;6.35;;
79149;SDS011;68563;45.644;13.782;2023-06-26T04:58:14;16.08;;;7.25;;
79149;SDS011;68563;45.644;13.782;2023-06-26T05:00:39;9.70;;;6.88;;
79149;SDS011;68563;45.644;13.782;2023-06-26T05:03:08;11.10;;;6.28;;
79149;SDS011;68563;45.644;13.782;2023-06-26T05:05:34;11.77;;;6.38;;
79149;SDS011;68563;45.644;13.782;2023-06-26T05:08:06;10.95;;;6.03;;
79149;SDS011;68563;45.644;13.782;2023-06-26T05:10:38;10.32;;;5.97;;
79149;SDS011;68563;45.644;13.782;2023-06-26T05:13:04;9.13;;;6.15;;
79149;SDS011;68563;45.644;13.782;2023-06-26T05:15:29;9.30;;;6.05;;
79149;SDS011;68563;45.644;13.782;2023-06-26T05:17:54;7.78;;;5.85;;
79149;SDS011;68563;45.644;13.782;2023-06-26T05:20:20;8.73;;;5.57;;
79149;SDS011;68563;45.644;13.782;2023-06-26T05:22:45;8.18;;;5.65;;
79149;SDS011;68563;45.644;13.782;2023-06-26T05:25:11;7.88;;;5.43;;
79149;SDS011;68563;45.644;13.782;2023-06-26T05:27:38;6.88;;;5.55;;
79149;SDS011;68563;45.644;13.782;2023-06-26T05:30:03;6.97;;;5.55;;
79149;SDS011;68563;45.644;13.782;2023-06-26T05:32:29;8.50;;;5.85;;
79149;SDS011;68563;45.644;13.782;2023-06-26T05:34:55;6.28;;;5.20;;
79149;SDS011;68563;45.644;13.782;2023-06-26T05:37:22;7.40;;;5.70;;
79149;SDS011;68563;45.644;13.782;2023-06-26T05:39:48;6.93;;;5.57;;
79149;SDS011;68563;45.644;13.782;2023-06-26T05:42:13;10.73;;;5.93;;
79149;SDS011;68563;45.644;13.782;2023-06-26T05:44:39;8.68;;;5.63;;
79149;SDS011;68563;45.644;13.782;2023-06-26T05:47:05;9.60;;;6.10;;
79149;SDS011;68563;45.644;13.782;2023-06-26T05:49:31;6.65;;;5.57;;
79149;SDS011;68563;45.644;13.782;2023-06-26T05:51:56;11.15;;;7.28;;
79149;SDS011;68563;45.644;13.782;2023-06-26T05:54:23;9.73;;;6.35;;
79149;SDS011;68563;45.644;13.782;2023-06-26T05:56:49;11.10;;;6.47;;
79149;SDS011;68563;45.644;13.782;2023-06-26T05:59:21;7.90;;;6.03;;
79149;SDS011;68563;45.644;13.782;2023-06-26T06:01:47;7.68;;;5.90;;
79149;SDS011;68563;45.644;13.782;2023-06-26T06:04:13;7.78;;;5.75;;
79149;SDS011;68563;45.644;13.782;2023-06-26T06:06:38;11.75;;;6.63;;
79149;SDS011;68563;45.644;13.782;2023-06-26T06:09:04;11.63;;;6.28;;
79149;SDS011;68563;45.644;13.782;2023-06-26T06:11:29;9.65;;;6.32;;
79149;SDS011;68563;45.644;13.782;2023-06-26T06:13:54;10.18;;;6.28;;
79149;SDS011;68563;45.644;13.782;2023-06-26T06:16:20;8.95;;;6.13;;
79149;SDS011;68563;45.644;13.782;2023-06-26T06:18:45;10.25;;;6.32;;
79149;SDS011;68563;45.644;13.782;2023-06-26T06:21:11;8.32;;;6.05;;
79149;SDS011;68563;45.644;13.782;2023-06-26T06:23:36;10.13;;;5.80;;
79149;SDS011;68563;45.644;13.782;2023-06-26T06:26:03;7.28;;;5.82;;
79149;SDS011;68563;45.644;13.782;2023-06-26T06:28:28;9.38;;;5.80;;
79149;SDS011;68563;45.644;13.782;2023-06-26T06:30:54;9.65;;;5.93;;
79149;SDS011;68563;45.644;13.782;2023-06-26T06:33:19;8.68;;;5.97;;
79149;SDS011;68563;45.644;13.782;2023-06-26T06:35:45;9.50;;;6.28;;
79149;SDS011;68563;45.644;13.782;2023-06-26T06:38:10;8.43;;;6.13;;
79149;SDS011;68563;45.644;13.782;2023-06-26T06:40:35;11.55;;;6.05;;
79149;SDS011;68563;45.644;13.782;2023-06-26T06:43:01;8.10;;;5.68;;
79149;SDS011;68563;45.644;13.782;2023-06-26T06:45:26;6.95;;;6.22;;
79149;SDS011;68563;45.644;13.782;2023-06-26T06:47:52;8.07;;;6.00;;
79149;SDS011;68563;45.644;13.782;2023-06-26T06:50:17;8.30;;;5.70;;
79149;SDS011;68563;45.644;13.782;2023-06-26T06:52:43;13.55;;;5.90;;
79149;SDS011;68563;45.644;13.782;2023-06-26T06:55:09;9.20;;;5.80;;
79149;SDS011;68563;45.644;13.782;2023-06-26T06:57:38;9.35;;;6.07;;
79149;SDS011;68563;45.644;13.782;2023-06-26T07:00:05;9.27;;;5.50;;
79149;SDS011;68563;45.644;13.782;2023-06-26T07:02:35;8.88;;;6.57;;
79149;SDS011;68563;45.644;13.782;2023-06-26T07:05:02;8.45;;;5.82;;
79149;SDS011;68563;45.644;13.782;2023-06-26T07:07:29;8.02;;;5.65;;
79149;SDS011;68563;45.644;13.782;2023-06-26T07:10:06;8.38;;;5.68;;
79149;SDS011;68563;45.644;13.782;2023-06-26T07:12:32;7.95;;;5.72;;
79149;SDS011;68563;45.644;13.782;2023-06-26T07:14:59;7.65;;;5.80;;
79149;SDS011;68563;45.644;13.782;2023-06-26T07:17:29;10.32;;;5.80;;
79149;SDS011;68563;45.644;13.782;2023-06-26T07:19:55;9.15;;;5.90;;
79149;SDS011;68563;45.644;13.782;2023-06-26T07:22:21;9.20;;;6.35;;
79149;SDS011;68563;45.644;13.782;2023-06-26T07:24:46;6.43;;;5.65;;
79149;SDS011;68563;45.644;13.782;2023-06-26T07:27:13;9.82;;;6.43;;
79149;SDS011;68563;45.644;13.782;2023-06-26T07:29:43;9.45;;;6.55;;
79149;SDS011;68563;45.644;13.782;2023-06-26T07:32:08;10.32;;;6.63;;
79149;SDS011;68563;45.644;13.782;2023-06-26T07:34:34;11.15;;;6.68;;
79149;SDS011;68563;45.644;13.782;2023-06-26T07:36:59;8.68;;;6.32;;
79149;SDS011;68563;45.644;13.782;2023-06-26T07:39:25;9.52;;;6.57;;
79149;SDS011;68563;45.644;13.782;2023-06-26T07:41:51;7.25;;;6.47;;
79149;SDS011;68563;45.644;13.782;2023-06-26T07:44:16;8.93;;;6.28;;
79149;SDS011;68563;45.644;13.782;2023-06-26T07:46:41;9.90;;;7.28;;
79149;SDS011;68563;45.644;13.782;2023-06-26T07:49:07;8.60;;;6.60;;
79149;SDS011;68563;45.644;13.782;2023-06-26T07:51:32;8.05;;;7.07;;
79149;SDS011;68563;45.644;13.782;2023-06-26T07:53:58;7.15;;;5.88;;
79149;SDS011;68563;45.644;13.782;2023-06-26T07:56:23;8.60;;;6.40;;
79149;SDS011;68563;45.644;13.782;2023-06-26T07:58:48;8.05;;;6.13;;
79149;SDS011;68563;45.644;13.782;2023-06-26T08:01:14;7.20;;;6.00;;
79149;SDS011;68563;45.644;13.782;2023-06-26T08:03:39;8.35;;;6.10;;
79149;SDS011;68563;45.644;13.782;2023-06-26T08:06:05;8.48;;;6.10;;
79149;SDS011;68563;45.644;13.782;2023-06-26T08:08:31;8.80;;;6.05;;
79149;SDS011;68563;45.644;13.782;2023-06-26T08:10:56;9.85;;;5.97;;
79149;SDS011;68563;45.644;13.782;2023-06-26T08:13:21;10.27;;;5.95;;
79149;SDS011;68563;45.644;13.782;2023-06-26T08:15:47;8.52;;;6.15;;
79149;SDS011;68563;45.644;13.782;2023-06-26T08:18:13;7.43;;;6.32;;
79149;SDS011;68563;45.644;13.782;2023-06-26T08:20:39;9.50;;;6.93;;
79149;SDS011;68563;45.644;13.782;2023-06-26T08:23:11;9.30;;;6.57;;
79149;SDS011;68563;45.644;13.782;2023-06-26T08:25:36;8.13;;;6.18;;
79149;SDS011;68563;45.644;13.782;2023-06-26T08:28:01;8.45;;;6.13;;
79149;SDS011;68563;45.644;13.782;2023-06-26T08:30:28;10.10;;;6.63;;
79149;SDS011;68563;45.644;13.782;2023-06-26T08:32:56;8.63;;;6.07;;
79149;SDS011;68563;45.644;13.782;2023-06-26T08:35:22;8.48;;;6.50;;
79149;SDS011;68563;45.644;13.782;2023-06-26T08:37:47;11.38;;;6.97;;
79149;SDS011;68563;45.644;13.782;2023-06-26T08:40:14;13.02;;;6.65;;
79149;SDS011;68563;45.644;13.782;2023-06-26T08:42:43;10.52;;;6.63;;
79149;SDS011;68563;45.644;13.782;2023-06-26T08:45:09;10.27;;;6.72;;
79149;SDS011;68563;45.644;13.782;2023-06-26T08:47:34;10.88;;;6.65;;
79149;SDS011;68563;45.644;13.782;2023-06-26T08:50:13;10.25;;;6.18;;
79149;SDS011;68563;45.644;13.782;2023-06-26T08:52:54;11.13;;;6.65;;
79149;SDS011;68563;45.644;13.782;2023-06-26T08:55:29;9.13;;;6.65;;
79149;SDS011;68563;45.644;13.782;2023-06-26T08:57:56;9.02;;;6.93;;
79149;SDS011;68563;45.644;13.782;2023-06-26T09:00:23;13.68;;;7.13;;
79149;SDS011;68563;45.644;13.782;2023-06-26T09:02:48;8.98;;;7.15;;
79149;SDS011;68563;45.644;13.782;2023-06-26T09:05:14;10.20;;;6.90;;
79149;SDS011;68563;45.644;13.782;2023-06-26T09:07:40;9.88;;;6.82;;
79149;SDS011;68563;45.644;13.782;2023-06-26T09:10:05;11.60;;;7.07;;
79149;SDS011;68563;45.644;13.782;2023-06-26T09:12:31;10.52;;;6.78;;
79149;SDS011;68563;45.644;13.782;2023-06-26T09:14:57;11.35;;;6.88;;
79149;SDS011;68563;45.644;13.782;2023-06-26T09:17:24;9.90;;;6.93;;
79149;SDS011;68563;45.644;13.782;2023-06-26T09:19:54;12.63;;;6.78;;
79149;SDS011;68563;45.644;13.782;2023-06-26T09:22:19;11.45;;;7.25;;
79149;SDS011;68563;45.644;13.782;2023-06-26T09:24:44;10.25;;;6.18;;
79149;SDS011;68563;45.644;13.782;2023-06-26T09:27:10;7.95;;;6.82;;
79149;SDS011;68563;45.644;13.782;2023-06-26T09:29:36;12.48;;;6.82;;
79149;SDS011;68563;45.644;13.782;2023-06-26T09:32:02;8.02;;;6.95;;
79149;SDS011;68563;45.644;13.782;2023-06-26T09:34:32;12.00;;;7.10;;
79149;SDS011;68563;45.644;13.782;2023-06-26T09:36:58;10.38;;;7.32;;
79149;SDS011;68563;45.644;13.782;2023-06-26T09:41:55;9.40;;;7.95;;
79149;SDS011;68563;45.644;13.782;2023-06-26T09:44:22;8.95;;;6.80;;
79149;SDS011;68563;45.644;13.782;2023-06-26T09:46:47;9.73;;;7.55;;
79149;SDS011;68563;45.644;13.782;2023-06-26T09:49:12;8.50;;;6.70;;
79149;SDS011;68563;45.644;13.782;2023-06-26T09:51:39;8.50;;;6.72;;
79149;SDS011;68563;45.644;13.782;2023-06-26T09:54:05;9.85;;;6.28;;
79149;SDS011;68563;45.644;13.782;2023-06-26T09:56:32;8.98;;;6.78;;
79149;SDS011;68563;45.644;13.782;2023-06-26T09:58:58;8.93;;;6.32;;
79149;SDS011;68563;45.644;13.782;2023-06-26T10:01:28;9.30;;;6.13;;
79149;SDS011;68563;45.644;13.782;2023-06-26T10:03:54;7.45;;;6.50;;
79149;SDS011;68563;45.644;13.782;2023-06-26T10:08:51;7.65;;;5.80;;
79149;SDS011;68563;45.644;13.782;2023-06-26T10:11:18;6.55;;;5.72;;
79149;SDS011;68563;45.644;13.782;2023-06-26T10:13:47;7.75;;;6.15;;
79149;SDS011;68563;45.644;13.782;2023-06-26T10:16:23;9.63;;;6.15;;
79149;SDS011;68563;45.644;13.782;2023-06-26T10:18:56;8.23;;;5.80;;
79149;SDS011;68563;45.644;13.782;2023-06-26T10:21:26;9.68;;;6.53;;
79149;SDS011;68563;45.644;13.782;2023-06-26T10:23:54;7.13;;;5.75;;
79149;SDS011;68563;45.644;13.782;2023-06-26T10:26:21;8.73;;;6.43;;
79149;SDS011;68563;45.644;13.782;2023-06-26T10:28:49;8.77;;;5.97;;
79149;SDS011;68563;45.644;13.782;2023-06-26T10:31:18;7.85;;;6.22;;
79149;SDS011;68563;45.644;13.782;2023-06-26T10:33:48;8.90;;;6.38;;
79149;SDS011;68563;45.644;13.782;2023-06-26T10:36:19;6.45;;;5.80;;
79149;SDS011;68563;45.644;13.782;2023-06-26T10:38:49;6.95;;;6.20;;
79149;SDS011;68563;45.644;13.782;2023-06-26T10:41:18;7.28;;;6.40;;
79149;SDS011;68563;45.644;13.782;2023-06-26T10:43:45;8.95;;;6.55;;
79149;SDS011;68563;45.644;13.782;2023-06-26T10:46:14;7.43;;;6.63;;
79149;SDS011;68563;45.644;13.782;2023-06-26T10:48:56;6.95;;;6.22;;
79149;SDS011;68563;45.644;13.782;2023-06-26T10:51:26;8.77;;;6.28;;
79149;SDS011;68563;45.644;13.782;2023-06-26T10:53:55;7.75;;;6.22;;
79149;SDS011;68563;45.644;13.782;2023-06-26T10:56:21;9.95;;;6.80;;
79149;SDS011;68563;45.644;13.782;2023-06-26T10:59:19;8.25;;;6.13;;
79149;SDS011;68563;45.644;13.782;2023-06-26T11:02:06;9.35;;;6.80;;
79149;SDS011;68563;45.644;13.782;2023-06-26T11:04:43;8.70;;;6.35;;
79149;SDS011;68563;45.644;13.782;2023-06-26T11:07:20;8.88;;;6.95;;
79149;SDS011;68563;45.644;13.782;2023-06-26T11:12:41;7.75;;;6.53;;
79149;SDS011;68563;45.644;13.782;2023-06-26T11:17:36;11.15;;;6.90;;
79149;SDS011;68563;45.644;13.782;2023-06-26T11:20:06;8.65;;;6.22;;
79149;SDS011;68563;45.644;13.782;2023-06-26T11:22:36;6.85;;;5.90;;
79149;SDS011;68563;45.644;13.782;2023-06-26T11:25:03;11.30;;;6.28;;
79149;SDS011;68563;45.644;13.782;2023-06-26T11:27:31;8.45;;;6.35;;
79149;SDS011;68563;45.644;13.782;2023-06-26T11:30:06;9.52;;;6.40;;
79149;SDS011;68563;45.644;13.782;2023-06-26T11:32:32;9.48;;;6.50;;
79149;SDS011;68563;45.644;13.782;2023-06-26T11:34:58;8.82;;;7.00;;
79149;SDS011;68563;45.644;13.782;2023-06-26T11:37:24;7.95;;;6.47;;
79149;SDS011;68563;45.644;13.782;2023-06-26T11:39:50;8.52;;;6.63;;
79149;SDS011;68563;45.644;13.782;2023-06-26T11:42:16;12.60;;;6.25;;
79149;SDS011;68563;45.644;13.782;2023-06-26T11:44:42;9.63;;;6.07;;
79149;SDS011;68563;45.644;13.782;2023-06-26T11:47:12;7.72;;;5.80;;
79149;SDS011;68563;45.644;13.782;2023-06-26T11:49:45;9.43;;;5.80;;
79149;SDS011;68563;45.644;13.782;2023-06-26T11:52:12;8.38;;;6.18;;
79149;SDS011;68563;45.644;13.782;2023-06-26T11:54:38;10.30;;;5.70;;
79149;SDS011;68563;45.644;13.782;2023-06-26T11:57:04;10.45;;;6.63;;
79149;SDS011;68563;45.644;13.782;2023-06-26T11:59:33;9.32;;;6.47;;
79149;SDS011;68563;45.644;13.782;2023-06-26T12:02:08;7.63;;;6.82;;
79149;SDS011;68563;45.644;13.782;2023-06-26T12:04:41;9.55;;;7.32;;
79149;SDS011;68563;45.644;13.782;2023-06-26T12:07:08;7.65;;;6.75;;
79149;SDS011;68563;45.644;13.782;2023-06-26T12:09:38;14.10;;;7.20;;
79149;SDS011;68563;45.644;13.782;2023-06-26T12:12:06;12.02;;;6.60;;
79149;SDS011;68563;45.644;13.782;2023-06-26T12:14:32;9.68;;;6.43;;
79149;SDS011;68563;45.644;13.782;2023-06-26T12:17:08;8.10;;;6.78;;
79149;SDS011;68563;45.644;13.782;2023-06-26T12:19:37;6.90;;;6.18;;
79149;SDS011;68563;45.644;13.782;2023-06-26T12:22:07;8.75;;;6.53;;
79149;SDS011;68563;45.644;13.782;2023-06-26T12:24:33;8.32;;;5.97;;
79149;SDS011;68563;45.644;13.782;2023-06-26T12:27:01;10.18;;;6.80;;
79149;SDS011;68563;45.644;13.782;2023-06-26T12:29:32;7.93;;;6.45;;
79149;SDS011;68563;45.644;13.782;2023-06-26T12:31:58;8.13;;;6.63;;
79149;SDS011;68563;45.644;13.782;2023-06-26T12:34:46;7.55;;;6.72;;
79149;SDS011;68563;45.644;13.782;2023-06-26T12:37:13;7.60;;;6.13;;
79149;SDS011;68563;45.644;13.782;2023-06-26T12:39:46;6.88;;;5.75;;
79149;SDS011;68563;45.644;13.782;2023-06-26T12:42:15;6.93;;;5.90;;
79149;SDS011;68563;45.644;13.782;2023-06-26T12:44:42;9.05;;;6.82;;
79149;SDS011;68563;45.644;13.782;2023-06-26T12:47:08;8.55;;;6.38;;
79149;SDS011;68563;45.644;13.782;2023-06-26T12:49:36;8.35;;;6.28;;
79149;SDS011;68563;45.644;13.782;2023-06-26T12:52:03;9.32;;;6.63;;
79149;SDS011;68563;45.644;13.782;2023-06-26T12:54:30;8.75;;;5.82;;
79149;SDS011;68563;45.644;13.782;2023-06-26T12:56:56;7.57;;;5.40;;
79149;SDS011;68563;45.644;13.782;2023-06-26T12:59:22;6.40;;;5.15;;
79149;SDS011;68563;45.644;13.782;2023-06-26T13:01:48;6.03;;;5.38;;
79149;SDS011;68563;45.644;13.782;2023-06-26T13:04:14;6.55;;;4.93;;
79149;SDS011;68563;45.644;13.782;2023-06-26T13:06:39;5.95;;;5.00;;
79149;SDS011;68563;45.644;13.782;2023-06-26T13:09:05;6.05;;;4.90;;
79149;SDS011;68563;45.644;13.782;2023-06-26T13:11:31;6.25;;;4.95;;
79149;SDS011;68563;45.644;13.782;2023-06-26T13:13:57;6.13;;;4.90;;
79149;SDS011;68563;45.644;13.782;2023-06-26T13:16:23;5.35;;;4.78;;
79149;SDS011;68563;45.644;13.782;2023-06-26T13:18:48;5.53;;;4.50;;
79149;SDS011;68563;45.644;13.782;2023-06-26T13:21:14;5.65;;;4.63;;
79149;SDS011;68563;45.644;13.782;2023-06-26T13:23:40;5.47;;;4.68;;
79149;SDS011;68563;45.644;13.782;2023-06-26T13:26:06;5.40;;;4.70;;
79149;SDS011;68563;45.644;13.782;2023-06-26T13:28:31;4.95;;;4.40;;
79149;SDS011;68563;45.644;13.782;2023-06-26T13:30:57;5.18;;;4.35;;
79149;SDS011;68563;45.644;13.782;2023-06-26T13:33:23;5.13;;;4.63;;
79149;SDS011;68563;45.644;13.782;2023-06-26T13:35:50;5.25;;;4.43;;
79149;SDS011;68563;45.644;13.782;2023-06-26T13:38:19;4.82;;;4.38;;
79149;SDS011;68563;45.644;13.782;2023-06-26T13:40:50;5.15;;;4.65;;
79149;SDS011;68563;45.644;13.782;2023-06-26T13:45:47;6.57;;;4.45;;
79149;SDS011;68563;45.644;13.782;2023-06-26T13:48:13;5.63;;;4.70;;
79149;SDS011;68563;45.644;13.782;2023-06-26T13:50:39;6.10;;;4.72;;
79149;SDS011;68563;45.644;13.782;2023-06-26T13:53:04;5.78;;;4.80;;
79149;SDS011;68563;45.644;13.782;2023-06-26T13:55:30;5.18;;;4.68;;
79149;SDS011;68563;45.644;13.782;2023-06-26T13:57:56;6.28;;;4.78;;
79149;SDS011;68563;45.644;13.782;2023-06-26T14:00:22;6.35;;;4.53;;
79149;SDS011;68563;45.644;13.782;2023-06-26T14:02:48;4.72;;;4.20;;
79149;SDS011;68563;45.644;13.782;2023-06-26T14:05:13;5.45;;;4.50;;
79149;SDS011;68563;45.644;13.782;2023-06-26T14:07:39;6.00;;;4.65;;
79149;SDS011;68563;45.644;13.782;2023-06-26T14:12:40;5.90;;;4.80;;
79149;SDS011;68563;45.644;13.782;2023-06-26T14:15:06;5.47;;;4.95;;
79149;SDS011;68563;45.644;13.782;2023-06-26T14:17:32;8.13;;;4.60;;
79149;SDS011;68563;45.644;13.782;2023-06-26T14:19:57;4.95;;;4.45;;
79149;SDS011;68563;45.644;13.782;2023-06-26T14:22:23;6.45;;;4.60;;
79149;SDS011;68563;45.644;13.782;2023-06-26T14:24:48;5.97;;;4.38;;
79149;SDS011;68563;45.644;13.782;2023-06-26T14:27:14;5.03;;;4.53;;
79149;SDS011;68563;45.644;13.782;2023-06-26T14:29:40;4.93;;;4.43;;
79149;SDS011;68563;45.644;13.782;2023-06-26T14:32:06;8.75;;;4.60;;
79149;SDS011;68563;45.644;13.782;2023-06-26T14:34:31;5.32;;;4.82;;
79149;SDS011;68563;45.644;13.782;2023-06-26T14:36:57;5.20;;;4.70;;
79149;SDS011;68563;45.644;13.782;2023-06-26T14:39:23;5.05;;;4.55;;
79149;SDS011;68563;45.644;13.782;2023-06-26T14:41:48;5.65;;;4.38;;
79149;SDS011;68563;45.644;13.782;2023-06-26T14:44:14;7.13;;;5.07;;
79149;SDS011;68563;45.644;13.782;2023-06-26T14:46:39;6.03;;;4.57;;
79149;SDS011;68563;45.644;13.782;2023-06-26T14:49:05;5.65;;;4.20;;
79149;SDS011;68563;45.644;13.782;2023-06-26T14:51:30;7.82;;;4.38;;
79149;SDS011;68563;45.644;13.782;2023-06-26T14:53:56;5.20;;;4.63;;
79149;SDS011;68563;45.644;13.782;2023-06-26T14:56:21;5.18;;;4.68;;